sensor_id;sensor_type;location;lat;lon;timestamp;P1;durP1;ratioP1;P2;durP2;ratioP2
13872;SDS011;7006;51.494;11.964;2022-11-20T00:01:41;33.08;;;17.98;;
13872;SDS011;7006;51.494;11.964;2022-11-20T00:04:08;31.75;;;17.83;;
13872;SDS011;7006;51.494;11.964;2022-11-20T00:06:36;26.90;;;15.93;;
13872;SDS011;7006;51.494;11.964;2022-11-20T00:09:02;27.47;;;15.80;;
13872;SDS011;7006;51.494;11.964;2022-11-20T00:11:30;30.93;;;17.33;;
13872;SDS011;7006;51.494;11.964;2022-11-20T00:13:57;28.63;;;17.25;;
13872;SDS011;7006;51.494;11.964;2022-11-20T00:16:25;28.45;;;15.88;;
13872;SDS011;7006;51.494;11.964;2022-11-20T00:18:52;25.98;;;16.05;;
13872;SDS011;7006;51.494;11.964;2022-11-20T00:21:19;31.70;;;17.30;;
13872;SDS011;7006;51.494;11.964;2022-11-20T00:23:47;28.38;;;16.40;;
13872;SDS011;7006;51.494;11.964;2022-11-20T00:26:14;25.90;;;16.20;;
13872;SDS011;7006;51.494;11.964;2022-11-20T00:28:41;28.98;;;16.27;;
13872;SDS011;7006;51.494;11.964;2022-11-20T00:31:09;27.15;;;16.25;;
13872;SDS011;7006;51.494;11.964;2022-11-20T00:33:36;25.75;;;16.35;;
13872;SDS011;7006;51.494;11.964;2022-11-20T00:36:03;30.43;;;15.67;;
13872;SDS011;7006;51.494;11.964;2022-11-20T00:38:30;27.55;;;16.73;;
13872;SDS011;7006;51.494;11.964;2022-11-20T00:40:58;26.05;;;15.40;;
13872;SDS011;7006;51.494;11.964;2022-11-20T00:43:25;25.40;;;14.95;;
13872;SDS011;7006;51.494;11.964;2022-11-20T00:45:55;27.52;;;16.52;;
13872;SDS011;7006;51.494;11.964;2022-11-20T00:48:22;30.70;;;16.50;;
13872;SDS011;7006;51.494;11.964;2022-11-20T00:50:48;26.92;;;16.42;;
13872;SDS011;7006;51.494;11.964;2022-11-20T00:53:14;26.50;;;15.13;;
13872;SDS011;7006;51.494;11.964;2022-11-20T00:55:41;25.98;;;15.25;;
13872;SDS011;7006;51.494;11.964;2022-11-20T00:58:08;27.63;;;16.25;;
13872;SDS011;7006;51.494;11.964;2022-11-20T01:00:35;28.10;;;16.55;;
13872;SDS011;7006;51.494;11.964;2022-11-20T01:03:01;30.58;;;16.98;;
13872;SDS011;7006;51.494;11.964;2022-11-20T01:05:27;30.00;;;17.52;;
13872;SDS011;7006;51.494;11.964;2022-11-20T01:07:54;25.75;;;15.70;;
13872;SDS011;7006;51.494;11.964;2022-11-20T01:10:20;28.85;;;15.65;;
13872;SDS011;7006;51.494;11.964;2022-11-20T01:12:47;28.63;;;16.40;;
13872;SDS011;7006;51.494;11.964;2022-11-20T01:15:34;27.92;;;16.17;;
13872;SDS011;7006;51.494;11.964;2022-11-20T01:18:01;31.55;;;16.95;;
13872;SDS011;7006;51.494;11.964;2022-11-20T01:20:28;29.60;;;15.50;;
13872;SDS011;7006;51.494;11.964;2022-11-20T01:22:54;27.13;;;15.85;;
13872;SDS011;7006;51.494;11.964;2022-11-20T01:25:20;28.15;;;15.57;;
13872;SDS011;7006;51.494;11.964;2022-11-20T01:27:47;25.58;;;15.50;;
13872;SDS011;7006;51.494;11.964;2022-11-20T01:30:13;27.20;;;15.63;;
13872;SDS011;7006;51.494;11.964;2022-11-20T01:32:41;28.45;;;15.52;;
13872;SDS011;7006;51.494;11.964;2022-11-20T01:35:07;27.80;;;15.65;;
13872;SDS011;7006;51.494;11.964;2022-11-20T01:37:34;29.95;;;16.27;;
13872;SDS011;7006;51.494;11.964;2022-11-20T01:40:01;28.42;;;16.15;;
13872;SDS011;7006;51.494;11.964;2022-11-20T01:42:27;29.05;;;15.90;;
13872;SDS011;7006;51.494;11.964;2022-11-20T01:47:58;26.10;;;16.48;;
13872;SDS011;7006;51.494;11.964;2022-11-20T01:50:25;24.67;;;14.57;;
13872;SDS011;7006;51.494;11.964;2022-11-20T01:52:54;28.73;;;14.57;;
13872;SDS011;7006;51.494;11.964;2022-11-20T01:55:23;27.33;;;16.30;;
13872;SDS011;7006;51.494;11.964;2022-11-20T01:57:51;24.45;;;14.23;;
13872;SDS011;7006;51.494;11.964;2022-11-20T02:00:18;30.33;;;15.75;;
13872;SDS011;7006;51.494;11.964;2022-11-20T02:02:45;30.50;;;17.63;;
13872;SDS011;7006;51.494;11.964;2022-11-20T02:05:16;28.00;;;17.25;;
13872;SDS011;7006;51.494;11.964;2022-11-20T02:07:43;29.77;;;16.52;;
13872;SDS011;7006;51.494;11.964;2022-11-20T02:10:10;27.20;;;16.98;;
13872;SDS011;7006;51.494;11.964;2022-11-20T02:12:37;25.30;;;15.57;;
13872;SDS011;7006;51.494;11.964;2022-11-20T02:15:21;25.48;;;15.75;;
13872;SDS011;7006;51.494;11.964;2022-11-20T02:17:47;29.10;;;15.93;;
13872;SDS011;7006;51.494;11.964;2022-11-20T02:20:15;27.30;;;15.80;;
13872;SDS011;7006;51.494;11.964;2022-11-20T02:22:43;28.30;;;16.95;;
13872;SDS011;7006;51.494;11.964;2022-11-20T02:25:15;25.67;;;16.88;;
13872;SDS011;7006;51.494;11.964;2022-11-20T02:27:42;31.10;;;16.15;;
13872;SDS011;7006;51.494;11.964;2022-11-20T02:30:09;28.98;;;16.98;;
13872;SDS011;7006;51.494;11.964;2022-11-20T02:32:36;28.13;;;16.05;;
13872;SDS011;7006;51.494;11.964;2022-11-20T02:35:07;32.75;;;18.95;;
13872;SDS011;7006;51.494;11.964;2022-11-20T02:37:34;32.53;;;17.95;;
13872;SDS011;7006;51.494;11.964;2022-11-20T02:40:01;27.90;;;15.65;;
13872;SDS011;7006;51.494;11.964;2022-11-20T02:42:29;28.38;;;16.73;;
13872;SDS011;7006;51.494;11.964;2022-11-20T02:44:55;30.42;;;17.42;;
13872;SDS011;7006;51.494;11.964;2022-11-20T02:47:21;28.00;;;16.38;;
13872;SDS011;7006;51.494;11.964;2022-11-20T02:49:48;30.48;;;18.17;;
13872;SDS011;7006;51.494;11.964;2022-11-20T02:52:14;30.23;;;17.67;;
13872;SDS011;7006;51.494;11.964;2022-11-20T02:54:40;32.78;;;18.65;;
13872;SDS011;7006;51.494;11.964;2022-11-20T02:57:07;28.08;;;16.65;;
13872;SDS011;7006;51.494;11.964;2022-11-20T02:59:34;32.35;;;16.60;;
13872;SDS011;7006;51.494;11.964;2022-11-20T03:02:01;30.10;;;17.20;;
13872;SDS011;7006;51.494;11.964;2022-11-20T03:04:27;28.90;;;16.92;;
13872;SDS011;7006;51.494;11.964;2022-11-20T03:06:53;30.13;;;18.02;;
13872;SDS011;7006;51.494;11.964;2022-11-20T03:09:20;33.20;;;18.33;;
13872;SDS011;7006;51.494;11.964;2022-11-20T03:11:46;29.88;;;18.63;;
13872;SDS011;7006;51.494;11.964;2022-11-20T03:14:13;35.80;;;18.55;;
13872;SDS011;7006;51.494;11.964;2022-11-20T03:16:40;30.65;;;17.42;;
13872;SDS011;7006;51.494;11.964;2022-11-20T03:19:07;31.70;;;16.20;;
13872;SDS011;7006;51.494;11.964;2022-11-20T03:21:33;33.03;;;17.98;;
13872;SDS011;7006;51.494;11.964;2022-11-20T03:24:00;30.58;;;17.98;;
13872;SDS011;7006;51.494;11.964;2022-11-20T03:26:26;32.25;;;17.85;;
13872;SDS011;7006;51.494;11.964;2022-11-20T03:28:53;31.75;;;17.40;;
13872;SDS011;7006;51.494;11.964;2022-11-20T03:31:20;30.40;;;17.55;;
13872;SDS011;7006;51.494;11.964;2022-11-20T03:33:48;31.05;;;18.23;;
13872;SDS011;7006;51.494;11.964;2022-11-20T03:36:15;30.55;;;17.48;;
13872;SDS011;7006;51.494;11.964;2022-11-20T03:38:42;28.52;;;17.15;;
13872;SDS011;7006;51.494;11.964;2022-11-20T03:41:09;30.83;;;16.85;;
13872;SDS011;7006;51.494;11.964;2022-11-20T03:43:36;28.95;;;17.40;;
13872;SDS011;7006;51.494;11.964;2022-11-20T03:46:02;29.45;;;16.55;;
13872;SDS011;7006;51.494;11.964;2022-11-20T03:48:29;29.92;;;17.90;;
13872;SDS011;7006;51.494;11.964;2022-11-20T03:51:07;29.90;;;17.23;;
13872;SDS011;7006;51.494;11.964;2022-11-20T03:53:34;29.50;;;17.10;;
13872;SDS011;7006;51.494;11.964;2022-11-20T03:56:00;28.73;;;16.55;;
13872;SDS011;7006;51.494;11.964;2022-11-20T03:58:27;31.75;;;16.35;;
13872;SDS011;7006;51.494;11.964;2022-11-20T04:00:53;30.63;;;16.70;;
13872;SDS011;7006;51.494;11.964;2022-11-20T04:03:19;27.95;;;15.80;;
13872;SDS011;7006;51.494;11.964;2022-11-20T04:05:46;28.65;;;16.60;;
13872;SDS011;7006;51.494;11.964;2022-11-20T04:08:13;29.98;;;17.58;;
13872;SDS011;7006;51.494;11.964;2022-11-20T04:10:40;30.25;;;16.15;;
13872;SDS011;7006;51.494;11.964;2022-11-20T04:13:06;31.60;;;19.00;;
13872;SDS011;7006;51.494;11.964;2022-11-20T04:15:32;30.42;;;16.33;;
13872;SDS011;7006;51.494;11.964;2022-11-20T04:17:59;31.20;;;17.20;;
13872;SDS011;7006;51.494;11.964;2022-11-20T04:20:25;27.13;;;16.50;;
13872;SDS011;7006;51.494;11.964;2022-11-20T04:22:52;35.28;;;17.35;;
13872;SDS011;7006;51.494;11.964;2022-11-20T04:25:20;35.78;;;18.00;;
13872;SDS011;7006;51.494;11.964;2022-11-20T04:27:46;25.90;;;16.67;;
13872;SDS011;7006;51.494;11.964;2022-11-20T04:30:13;31.67;;;17.50;;
13872;SDS011;7006;51.494;11.964;2022-11-20T04:32:39;29.98;;;17.65;;
13872;SDS011;7006;51.494;11.964;2022-11-20T04:35:06;31.77;;;16.98;;
13872;SDS011;7006;51.494;11.964;2022-11-20T04:37:32;32.17;;;17.45;;
13872;SDS011;7006;51.494;11.964;2022-11-20T04:39:58;29.80;;;16.95;;
13872;SDS011;7006;51.494;11.964;2022-11-20T04:42:26;32.35;;;16.75;;
13872;SDS011;7006;51.494;11.964;2022-11-20T04:44:56;33.30;;;18.90;;
13872;SDS011;7006;51.494;11.964;2022-11-20T04:47:22;30.00;;;17.90;;
13872;SDS011;7006;51.494;11.964;2022-11-20T04:49:49;32.53;;;17.70;;
13872;SDS011;7006;51.494;11.964;2022-11-20T04:52:15;32.28;;;18.50;;
13872;SDS011;7006;51.494;11.964;2022-11-20T04:54:41;31.65;;;18.27;;
13872;SDS011;7006;51.494;11.964;2022-11-20T04:57:08;34.65;;;17.73;;
13872;SDS011;7006;51.494;11.964;2022-11-20T04:59:36;28.55;;;16.80;;
13872;SDS011;7006;51.494;11.964;2022-11-20T05:02:02;32.47;;;17.30;;
13872;SDS011;7006;51.494;11.964;2022-11-20T05:04:28;31.83;;;18.17;;
13872;SDS011;7006;51.494;11.964;2022-11-20T05:06:55;31.55;;;18.08;;
13872;SDS011;7006;51.494;11.964;2022-11-20T05:09:21;32.38;;;18.38;;
13872;SDS011;7006;51.494;11.964;2022-11-20T05:11:47;32.85;;;18.98;;
13872;SDS011;7006;51.494;11.964;2022-11-20T05:14:14;37.53;;;18.35;;
13872;SDS011;7006;51.494;11.964;2022-11-20T05:16:41;29.00;;;17.92;;
13872;SDS011;7006;51.494;11.964;2022-11-20T05:19:08;33.00;;;18.52;;
13872;SDS011;7006;51.494;11.964;2022-11-20T05:21:34;33.10;;;19.65;;
13872;SDS011;7006;51.494;11.964;2022-11-20T05:24:01;36.40;;;18.95;;
13872;SDS011;7006;51.494;11.964;2022-11-20T05:26:27;31.42;;;18.85;;
13872;SDS011;7006;51.494;11.964;2022-11-20T05:28:53;37.25;;;17.63;;
13872;SDS011;7006;51.494;11.964;2022-11-20T05:31:20;35.95;;;19.25;;
13872;SDS011;7006;51.494;11.964;2022-11-20T05:33:48;22.27;;;12.10;;
13872;SDS011;7006;51.494;11.964;2022-11-20T05:36:15;35.20;;;18.77;;
13872;SDS011;7006;51.494;11.964;2022-11-20T05:38:41;32.35;;;18.60;;
13872;SDS011;7006;51.494;11.964;2022-11-20T05:41:09;36.70;;;18.90;;
13872;SDS011;7006;51.494;11.964;2022-11-20T05:43:37;29.50;;;18.50;;
13872;SDS011;7006;51.494;11.964;2022-11-20T05:46:04;33.22;;;18.40;;
13872;SDS011;7006;51.494;11.964;2022-11-20T05:48:30;30.83;;;18.45;;
13872;SDS011;7006;51.494;11.964;2022-11-20T05:50:58;37.55;;;18.10;;
13872;SDS011;7006;51.494;11.964;2022-11-20T05:53:24;33.92;;;17.63;;
13872;SDS011;7006;51.494;11.964;2022-11-20T05:55:57;34.90;;;18.30;;
13872;SDS011;7006;51.494;11.964;2022-11-20T05:58:24;36.78;;;18.85;;
13872;SDS011;7006;51.494;11.964;2022-11-20T06:00:50;34.70;;;18.63;;
13872;SDS011;7006;51.494;11.964;2022-11-20T06:03:17;32.05;;;17.90;;
13872;SDS011;7006;51.494;11.964;2022-11-20T06:05:43;32.95;;;18.50;;
13872;SDS011;7006;51.494;11.964;2022-11-20T06:08:11;35.58;;;19.35;;
13872;SDS011;7006;51.494;11.964;2022-11-20T06:10:37;37.60;;;19.75;;
13872;SDS011;7006;51.494;11.964;2022-11-20T06:13:04;36.28;;;19.13;;
13872;SDS011;7006;51.494;11.964;2022-11-20T06:15:30;33.15;;;18.15;;
13872;SDS011;7006;51.494;11.964;2022-11-20T06:17:56;33.20;;;17.35;;
13872;SDS011;7006;51.494;11.964;2022-11-20T06:20:23;42.80;;;20.60;;
13872;SDS011;7006;51.494;11.964;2022-11-20T06:22:50;42.90;;;20.25;;
13872;SDS011;7006;51.494;11.964;2022-11-20T06:25:17;39.72;;;21.92;;
13872;SDS011;7006;51.494;11.964;2022-11-20T06:27:44;40.50;;;20.42;;
13872;SDS011;7006;51.494;11.964;2022-11-20T06:30:11;35.45;;;20.13;;
13872;SDS011;7006;51.494;11.964;2022-11-20T06:32:37;41.25;;;21.20;;
13872;SDS011;7006;51.494;11.964;2022-11-20T06:35:04;39.03;;;20.52;;
13872;SDS011;7006;51.494;11.964;2022-11-20T06:37:30;40.25;;;22.67;;
13872;SDS011;7006;51.494;11.964;2022-11-20T06:39:57;36.53;;;20.88;;
13872;SDS011;7006;51.494;11.964;2022-11-20T06:42:24;39.55;;;21.52;;
13872;SDS011;7006;51.494;11.964;2022-11-20T06:44:51;39.92;;;22.92;;
13872;SDS011;7006;51.494;11.964;2022-11-20T06:47:17;41.40;;;22.27;;
13872;SDS011;7006;51.494;11.964;2022-11-20T06:49:43;41.70;;;22.90;;
13872;SDS011;7006;51.494;11.964;2022-11-20T06:52:10;39.50;;;21.48;;
13872;SDS011;7006;51.494;11.964;2022-11-20T06:54:36;43.58;;;20.95;;
13872;SDS011;7006;51.494;11.964;2022-11-20T06:57:03;35.85;;;21.20;;
13872;SDS011;7006;51.494;11.964;2022-11-20T06:59:30;42.97;;;22.10;;
13872;SDS011;7006;51.494;11.964;2022-11-20T07:01:57;39.40;;;23.33;;
13872;SDS011;7006;51.494;11.964;2022-11-20T07:04:23;40.65;;;21.58;;
13872;SDS011;7006;51.494;11.964;2022-11-20T07:06:49;38.80;;;21.92;;
13872;SDS011;7006;51.494;11.964;2022-11-20T07:09:16;41.33;;;22.85;;
13872;SDS011;7006;51.494;11.964;2022-11-20T07:11:42;43.13;;;22.42;;
13872;SDS011;7006;51.494;11.964;2022-11-20T07:14:09;48.33;;;25.08;;
13872;SDS011;7006;51.494;11.964;2022-11-20T07:16:36;40.47;;;22.25;;
13872;SDS011;7006;51.494;11.964;2022-11-20T07:19:03;37.60;;;22.58;;
13872;SDS011;7006;51.494;11.964;2022-11-20T07:21:29;40.00;;;21.33;;
13872;SDS011;7006;51.494;11.964;2022-11-20T07:23:56;35.88;;;20.52;;
13872;SDS011;7006;51.494;11.964;2022-11-20T07:26:22;38.70;;;19.58;;
13872;SDS011;7006;51.494;11.964;2022-11-20T07:28:48;43.47;;;23.15;;
13872;SDS011;7006;51.494;11.964;2022-11-20T07:31:15;38.75;;;21.20;;
13872;SDS011;7006;51.494;11.964;2022-11-20T07:33:42;37.55;;;19.63;;
13872;SDS011;7006;51.494;11.964;2022-11-20T07:36:09;46.45;;;27.00;;
13872;SDS011;7006;51.494;11.964;2022-11-20T07:38:36;44.72;;;24.05;;
13872;SDS011;7006;51.494;11.964;2022-11-20T07:41:03;45.08;;;24.83;;
13872;SDS011;7006;51.494;11.964;2022-11-20T07:43:29;46.45;;;24.33;;
13872;SDS011;7006;51.494;11.964;2022-11-20T07:45:56;43.38;;;24.33;;
13872;SDS011;7006;51.494;11.964;2022-11-20T07:48:22;37.80;;;21.63;;
13872;SDS011;7006;51.494;11.964;2022-11-20T07:50:52;36.83;;;20.23;;
13872;SDS011;7006;51.494;11.964;2022-11-20T07:53:19;39.05;;;23.02;;
13872;SDS011;7006;51.494;11.964;2022-11-20T07:55:45;37.72;;;21.27;;
13872;SDS011;7006;51.494;11.964;2022-11-20T07:58:12;46.85;;;24.50;;
13872;SDS011;7006;51.494;11.964;2022-11-20T08:00:38;39.90;;;22.92;;
13872;SDS011;7006;51.494;11.964;2022-11-20T08:03:05;41.58;;;24.00;;
13872;SDS011;7006;51.494;11.964;2022-11-20T08:05:32;34.40;;;20.95;;
13872;SDS011;7006;51.494;11.964;2022-11-20T08:07:59;33.38;;;19.42;;
13872;SDS011;7006;51.494;11.964;2022-11-20T08:10:26;35.83;;;21.07;;
13872;SDS011;7006;51.494;11.964;2022-11-20T08:12:52;40.15;;;21.42;;
13872;SDS011;7006;51.494;11.964;2022-11-20T08:15:37;32.77;;;18.90;;
13872;SDS011;7006;51.494;11.964;2022-11-20T08:18:04;30.53;;;18.10;;
13872;SDS011;7006;51.494;11.964;2022-11-20T08:20:31;35.50;;;20.20;;
13872;SDS011;7006;51.494;11.964;2022-11-20T08:22:59;37.47;;;21.58;;
13872;SDS011;7006;51.494;11.964;2022-11-20T08:25:27;32.00;;;20.40;;
13872;SDS011;7006;51.494;11.964;2022-11-20T08:27:53;37.60;;;21.50;;
13872;SDS011;7006;51.494;11.964;2022-11-20T08:30:19;38.13;;;21.77;;
13872;SDS011;7006;51.494;11.964;2022-11-20T08:32:46;31.70;;;19.37;;
13872;SDS011;7006;51.494;11.964;2022-11-20T08:35:12;32.17;;;19.77;;
13872;SDS011;7006;51.494;11.964;2022-11-20T08:37:38;31.37;;;18.73;;
13872;SDS011;7006;51.494;11.964;2022-11-20T08:40:08;31.20;;;19.67;;
13872;SDS011;7006;51.494;11.964;2022-11-20T08:42:45;34.33;;;18.80;;
13872;SDS011;7006;51.494;11.964;2022-11-20T08:45:11;32.13;;;18.60;;
13872;SDS011;7006;51.494;11.964;2022-11-20T08:47:38;32.60;;;20.00;;
13872;SDS011;7006;51.494;11.964;2022-11-20T08:50:04;31.13;;;19.80;;
13872;SDS011;7006;51.494;11.964;2022-11-20T08:52:31;35.80;;;21.63;;
13872;SDS011;7006;51.494;11.964;2022-11-20T08:54:57;40.53;;;23.37;;
13872;SDS011;7006;51.494;11.964;2022-11-20T08:57:25;33.47;;;20.03;;
13872;SDS011;7006;51.494;11.964;2022-11-20T08:59:51;32.03;;;19.30;;
13872;SDS011;7006;51.494;11.964;2022-11-20T09:02:17;34.27;;;19.03;;
13872;SDS011;7006;51.494;11.964;2022-11-20T09:04:44;32.97;;;20.07;;
13872;SDS011;7006;51.494;11.964;2022-11-20T09:07:10;28.90;;;17.60;;
13872;SDS011;7006;51.494;11.964;2022-11-20T09:09:37;32.17;;;18.40;;
13872;SDS011;7006;51.494;11.964;2022-11-20T09:12:03;32.80;;;18.53;;
13872;SDS011;7006;51.494;11.964;2022-11-20T09:14:31;29.47;;;18.30;;
13872;SDS011;7006;51.494;11.964;2022-11-20T09:16:58;28.53;;;17.90;;
13872;SDS011;7006;51.494;11.964;2022-11-20T09:19:25;30.43;;;17.53;;
13872;SDS011;7006;51.494;11.964;2022-11-20T09:21:51;28.83;;;17.57;;
13872;SDS011;7006;51.494;11.964;2022-11-20T09:24:18;30.50;;;18.27;;
13872;SDS011;7006;51.494;11.964;2022-11-20T09:26:45;31.93;;;18.47;;
13872;SDS011;7006;51.494;11.964;2022-11-20T09:29:12;29.07;;;17.77;;
13872;SDS011;7006;51.494;11.964;2022-11-20T09:31:39;30.77;;;18.43;;
13872;SDS011;7006;51.494;11.964;2022-11-20T09:34:06;33.37;;;19.63;;
13872;SDS011;7006;51.494;11.964;2022-11-20T09:36:32;29.00;;;17.30;;
13872;SDS011;7006;51.494;11.964;2022-11-20T09:38:58;38.53;;;20.43;;
13872;SDS011;7006;51.494;11.964;2022-11-20T09:41:31;28.07;;;17.67;;
13872;SDS011;7006;51.494;11.964;2022-11-20T09:44:02;32.07;;;18.23;;
13872;SDS011;7006;51.494;11.964;2022-11-20T09:46:34;34.87;;;21.47;;
13872;SDS011;7006;51.494;11.964;2022-11-20T09:49:12;38.30;;;20.67;;
13872;SDS011;7006;51.494;11.964;2022-11-20T09:51:41;27.97;;;18.00;;
13872;SDS011;7006;51.494;11.964;2022-11-20T09:54:13;43.87;;;23.47;;
13872;SDS011;7006;51.494;11.964;2022-11-20T09:56:40;34.53;;;19.67;;
13872;SDS011;7006;51.494;11.964;2022-11-20T09:59:11;29.70;;;17.53;;
13872;SDS011;7006;51.494;11.964;2022-11-20T10:01:42;33.47;;;19.20;;
13872;SDS011;7006;51.494;11.964;2022-11-20T10:04:12;30.43;;;17.70;;
13872;SDS011;7006;51.494;11.964;2022-11-20T10:06:41;28.67;;;16.60;;
13872;SDS011;7006;51.494;11.964;2022-11-20T10:09:14;33.87;;;18.43;;
13872;SDS011;7006;51.494;11.964;2022-11-20T10:11:46;33.53;;;17.83;;
13872;SDS011;7006;51.494;11.964;2022-11-20T10:14:16;31.97;;;18.23;;
13872;SDS011;7006;51.494;11.964;2022-11-20T10:16:46;31.30;;;17.53;;
13872;SDS011;7006;51.494;11.964;2022-11-20T10:19:26;37.70;;;21.53;;
13872;SDS011;7006;51.494;11.964;2022-11-20T10:21:57;28.77;;;17.23;;
13872;SDS011;7006;51.494;11.964;2022-11-20T10:24:36;26.00;;;15.83;;
13872;SDS011;7006;51.494;11.964;2022-11-20T10:27:08;29.20;;;17.67;;
13872;SDS011;7006;51.494;11.964;2022-11-20T10:29:38;27.60;;;17.73;;
13872;SDS011;7006;51.494;11.964;2022-11-20T10:32:07;32.70;;;17.40;;
13872;SDS011;7006;51.494;11.964;2022-11-20T10:34:41;29.13;;;16.40;;
13872;SDS011;7006;51.494;11.964;2022-11-20T10:37:10;32.13;;;17.00;;
13872;SDS011;7006;51.494;11.964;2022-11-20T10:39:39;27.07;;;17.20;;
13872;SDS011;7006;51.494;11.964;2022-11-20T10:42:08;29.40;;;16.73;;
13872;SDS011;7006;51.494;11.964;2022-11-20T10:44:37;30.80;;;17.37;;
13872;SDS011;7006;51.494;11.964;2022-11-20T10:47:22;28.03;;;17.40;;
13872;SDS011;7006;51.494;11.964;2022-11-20T10:49:51;33.07;;;20.97;;
13872;SDS011;7006;51.494;11.964;2022-11-20T10:52:20;29.87;;;18.77;;
13872;SDS011;7006;51.494;11.964;2022-11-20T10:54:51;28.23;;;17.07;;
13872;SDS011;7006;51.494;11.964;2022-11-20T10:57:23;29.40;;;16.63;;
13872;SDS011;7006;51.494;11.964;2022-11-20T10:59:59;25.67;;;16.90;;
13872;SDS011;7006;51.494;11.964;2022-11-20T11:02:31;27.07;;;16.60;;
13872;SDS011;7006;51.494;11.964;2022-11-20T11:05:00;23.43;;;14.70;;
13872;SDS011;7006;51.494;11.964;2022-11-20T11:07:33;25.50;;;15.60;;
13872;SDS011;7006;51.494;11.964;2022-11-20T11:10:05;24.97;;;16.43;;
13872;SDS011;7006;51.494;11.964;2022-11-20T11:12:38;22.03;;;15.27;;
13872;SDS011;7006;51.494;11.964;2022-11-20T11:15:11;25.80;;;16.00;;
13872;SDS011;7006;51.494;11.964;2022-11-20T11:17:45;25.60;;;15.60;;
13872;SDS011;7006;51.494;11.964;2022-11-20T11:20:16;26.47;;;17.53;;
13872;SDS011;7006;51.494;11.964;2022-11-20T11:22:43;36.23;;;22.70;;
13872;SDS011;7006;51.494;11.964;2022-11-20T11:25:18;28.50;;;17.23;;
13872;SDS011;7006;51.494;11.964;2022-11-20T11:27:45;27.33;;;17.00;;
13872;SDS011;7006;51.494;11.964;2022-11-20T11:30:12;29.43;;;19.40;;
13872;SDS011;7006;51.494;11.964;2022-11-20T11:32:40;23.97;;;15.50;;
13872;SDS011;7006;51.494;11.964;2022-11-20T11:35:11;25.20;;;16.20;;
13872;SDS011;7006;51.494;11.964;2022-11-20T11:37:46;22.97;;;14.60;;
13872;SDS011;7006;51.494;11.964;2022-11-20T11:40:13;24.90;;;15.53;;
13872;SDS011;7006;51.494;11.964;2022-11-20T11:42:41;27.17;;;17.53;;
13872;SDS011;7006;51.494;11.964;2022-11-20T11:45:11;20.23;;;13.83;;
13872;SDS011;7006;51.494;11.964;2022-11-20T11:47:43;20.50;;;14.60;;
13872;SDS011;7006;51.494;11.964;2022-11-20T11:50:14;23.73;;;15.17;;
13872;SDS011;7006;51.494;11.964;2022-11-20T11:52:42;20.37;;;13.73;;
13872;SDS011;7006;51.494;11.964;2022-11-20T11:55:12;22.70;;;16.20;;
13872;SDS011;7006;51.494;11.964;2022-11-20T11:57:41;26.83;;;18.20;;
13872;SDS011;7006;51.494;11.964;2022-11-20T12:00:12;25.60;;;15.80;;
13872;SDS011;7006;51.494;11.964;2022-11-20T12:02:41;23.00;;;15.83;;
13872;SDS011;7006;51.494;11.964;2022-11-20T12:05:16;19.13;;;14.40;;
13872;SDS011;7006;51.494;11.964;2022-11-20T12:07:45;20.27;;;13.97;;
13872;SDS011;7006;51.494;11.964;2022-11-20T12:10:15;18.67;;;12.93;;
13872;SDS011;7006;51.494;11.964;2022-11-20T12:12:43;19.53;;;14.10;;
13872;SDS011;7006;51.494;11.964;2022-11-20T12:15:11;21.43;;;13.73;;
13872;SDS011;7006;51.494;11.964;2022-11-20T12:17:38;22.00;;;14.40;;
13872;SDS011;7006;51.494;11.964;2022-11-20T12:20:10;18.23;;;13.10;;
13872;SDS011;7006;51.494;11.964;2022-11-20T12:22:40;20.93;;;14.03;;
13872;SDS011;7006;51.494;11.964;2022-11-20T12:25:07;22.47;;;16.37;;
13872;SDS011;7006;51.494;11.964;2022-11-20T12:27:39;18.77;;;13.60;;
13872;SDS011;7006;51.494;11.964;2022-11-20T12:30:07;18.60;;;13.40;;
13872;SDS011;7006;51.494;11.964;2022-11-20T12:35:27;19.23;;;13.10;;
13872;SDS011;7006;51.494;11.964;2022-11-20T12:38:01;19.00;;;12.87;;
13872;SDS011;7006;51.494;11.964;2022-11-20T12:40:32;19.70;;;12.77;;
13872;SDS011;7006;51.494;11.964;2022-11-20T12:43:05;19.30;;;13.33;;
13872;SDS011;7006;51.494;11.964;2022-11-20T12:46:06;17.63;;;13.20;;
13872;SDS011;7006;51.494;11.964;2022-11-20T12:54:32;20.90;;;14.50;;
13872;SDS011;7006;51.494;11.964;2022-11-20T12:57:04;23.47;;;16.80;;
13872;SDS011;7006;51.494;11.964;2022-11-20T12:59:39;22.07;;;16.23;;
13872;SDS011;7006;51.494;11.964;2022-11-20T13:02:14;51.03;;;33.63;;
13872;SDS011;7006;51.494;11.964;2022-11-20T13:04:48;22.00;;;15.33;;
13872;SDS011;7006;51.494;11.964;2022-11-20T13:07:19;18.87;;;13.60;;
13872;SDS011;7006;51.494;11.964;2022-11-20T13:09:46;17.10;;;12.43;;
13872;SDS011;7006;51.494;11.964;2022-11-20T13:12:14;18.80;;;12.97;;
13872;SDS011;7006;51.494;11.964;2022-11-20T13:14:45;19.03;;;13.00;;
13872;SDS011;7006;51.494;11.964;2022-11-20T13:17:14;22.70;;;16.27;;
13872;SDS011;7006;51.494;11.964;2022-11-20T13:19:45;20.43;;;13.07;;
13872;SDS011;7006;51.494;11.964;2022-11-20T13:22:12;17.63;;;12.67;;
13872;SDS011;7006;51.494;11.964;2022-11-20T13:24:50;19.80;;;12.90;;
13872;SDS011;7006;51.494;11.964;2022-11-20T13:27:20;18.70;;;12.93;;
13872;SDS011;7006;51.494;11.964;2022-11-20T13:32:34;20.90;;;13.57;;
13872;SDS011;7006;51.494;11.964;2022-11-20T13:35:01;20.27;;;13.53;;
13872;SDS011;7006;51.494;11.964;2022-11-20T13:37:29;20.30;;;13.33;;
13872;SDS011;7006;51.494;11.964;2022-11-20T13:40:05;18.67;;;12.60;;
13872;SDS011;7006;51.494;11.964;2022-11-20T13:42:31;21.30;;;14.00;;
13872;SDS011;7006;51.494;11.964;2022-11-20T13:45:02;18.07;;;12.27;;
13872;SDS011;7006;51.494;11.964;2022-11-20T13:47:29;17.27;;;11.80;;
13872;SDS011;7006;51.494;11.964;2022-11-20T13:49:57;17.70;;;12.13;;
13872;SDS011;7006;51.494;11.964;2022-11-20T13:52:30;19.87;;;13.00;;
13872;SDS011;7006;51.494;11.964;2022-11-20T13:55:06;17.87;;;11.67;;
13872;SDS011;7006;51.494;11.964;2022-11-20T13:57:46;17.40;;;11.60;;
13872;SDS011;7006;51.494;11.964;2022-11-20T14:00:16;17.93;;;12.13;;
13872;SDS011;7006;51.494;11.964;2022-11-20T14:02:43;14.10;;;10.70;;
13872;SDS011;7006;51.494;11.964;2022-11-20T14:05:15;16.60;;;11.50;;
13872;SDS011;7006;51.494;11.964;2022-11-20T14:07:43;15.87;;;10.37;;
13872;SDS011;7006;51.494;11.964;2022-11-20T14:10:18;16.10;;;11.37;;
13872;SDS011;7006;51.494;11.964;2022-11-20T14:12:45;17.40;;;11.90;;
13872;SDS011;7006;51.494;11.964;2022-11-20T14:15:23;16.40;;;11.43;;
13872;SDS011;7006;51.494;11.964;2022-11-20T14:17:49;16.53;;;11.57;;
13872;SDS011;7006;51.494;11.964;2022-11-20T14:20:17;19.30;;;13.80;;
13872;SDS011;7006;51.494;11.964;2022-11-20T14:22:48;16.13;;;11.03;;
13872;SDS011;7006;51.494;11.964;2022-11-20T14:25:18;16.03;;;11.00;;
13872;SDS011;7006;51.494;11.964;2022-11-20T14:27:47;17.30;;;12.10;;
13872;SDS011;7006;51.494;11.964;2022-11-20T14:30:15;17.80;;;11.70;;
13872;SDS011;7006;51.494;11.964;2022-11-20T14:32:43;18.63;;;12.70;;
13872;SDS011;7006;51.494;11.964;2022-11-20T14:35:10;19.70;;;13.17;;
13872;SDS011;7006;51.494;11.964;2022-11-20T14:37:41;22.23;;;13.50;;
13872;SDS011;7006;51.494;11.964;2022-11-20T14:40:22;19.20;;;12.93;;
13872;SDS011;7006;51.494;11.964;2022-11-20T14:42:48;21.57;;;12.90;;